createdAt,value
2022-08-14T00:00:59.249Z,19.94
2022-08-14T00:03:02.439Z,19.90
2022-08-14T00:05:10.124Z,19.88
2022-08-14T00:07:14.813Z,19.84
2022-08-14T00:09:18.448Z,19.80
2022-08-14T00:11:23.238Z,19.77
2022-08-14T00:13:29.083Z,19.74
2022-08-14T00:15:43.332Z,19.71
2022-08-14T00:17:52.977Z,19.67
2022-08-14T00:19:56.749Z,19.63
2022-08-14T00:22:01.169Z,19.60
2022-08-14T00:24:04.900Z,19.58
2022-08-14T00:26:08.439Z,19.59
2022-08-14T00:28:29.056Z,19.55
2022-08-14T00:30:35.732Z,19.51
2022-08-14T00:32:52.688Z,19.49
2022-08-14T00:35:01.457Z,19.43
2022-08-14T00:37:06.622Z,19.39
2022-08-14T00:39:14.233Z,19.37
2022-08-14T00:41:17.709Z,19.32
2022-08-14T00:43:21.110Z,19.29
2022-08-14T00:45:24.697Z,19.28
2022-08-14T00:47:27.893Z,19.27
2022-08-14T00:49:38.086Z,19.25
2022-08-14T00:51:46.397Z,19.21
2022-08-14T00:53:53.835Z,19.19
2022-08-14T00:55:57.684Z,19.15
2022-08-14T00:58:18.875Z,19.10
2022-08-14T01:00:37.125Z,19.08
2022-08-14T01:02:47.088Z,19.05
2022-08-14T01:05:00.798Z,19.00
2022-08-14T01:07:08.141Z,18.94
2022-08-14T01:09:14.234Z,18.87
2022-08-14T01:11:19.083Z,18.86
2022-08-14T01:13:25.110Z,18.83
2022-08-14T01:15:57.458Z,18.83
2022-08-14T01:18:20.149Z,18.83
2022-08-14T01:20:42.679Z,18.83
2022-08-14T01:22:50.204Z,18.82
2022-08-14T01:24:53.667Z,18.83
2022-08-14T01:26:57.779Z,18.84
2022-08-14T01:29:06.048Z,18.83
2022-08-14T01:31:12.608Z,18.83
2022-08-14T01:33:17.996Z,18.79
2022-08-14T01:36:03.461Z,18.73
2022-08-14T01:37:56.061Z,18.72
2022-08-14T01:40:03.013Z,18.72
2022-08-14T01:42:07.174Z,18.69
2022-08-14T01:44:32.826Z,18.63
2022-08-14T01:46:40.088Z,18.56
2022-08-14T01:48:44.338Z,18.54
2022-08-14T01:50:47.711Z,18.50
2022-08-14T01:52:58.414Z,18.48
2022-08-14T01:55:06.752Z,18.46
2022-08-14T01:57:11.573Z,18.43
2022-08-14T01:59:21.848Z,18.43
2022-08-14T02:01:26.674Z,18.42
2022-08-14T02:03:34.502Z,18.44
2022-08-14T02:05:39.108Z,18.44
2022-08-14T02:07:53.704Z,18.42
2022-08-14T02:09:59.974Z,18.40
2022-08-14T02:12:06.723Z,18.39
2022-08-14T02:14:14.255Z,18.36
2022-08-14T02:16:22.455Z,18.36
2022-08-14T02:18:28.104Z,18.34
2022-08-14T02:20:36.222Z,18.34
2022-08-14T02:22:47.418Z,18.31
2022-08-14T02:24:52.313Z,18.26
2022-08-14T02:28:20.240Z,18.22
2022-08-14T02:29:24.404Z,18.22
2022-08-14T02:31:50.208Z,18.22
2022-08-14T02:33:55.061Z,18.22
2022-08-14T02:36:05.018Z,18.21
2022-08-14T02:38:30.014Z,18.18
2022-08-14T02:40:37.973Z,18.13
2022-08-14T02:42:41.678Z,18.08
2022-08-14T02:45:00.436Z,18.03
2022-08-14T02:47:14.672Z,17.98
2022-08-14T02:49:21.638Z,17.96
2022-08-14T02:51:30.703Z,17.93
2022-08-14T02:53:35.078Z,17.93
2022-08-14T02:55:41.295Z,17.90
2022-08-14T02:57:45.038Z,17.88
2022-08-14T02:59:57.449Z,17.87
2022-08-14T03:02:03.110Z,17.85
2022-08-14T03:04:09.919Z,17.83
2022-08-14T03:06:20.615Z,17.80
2022-08-14T03:08:39.620Z,17.76
2022-08-14T03:10:50.322Z,17.73
2022-08-14T03:12:53.539Z,17.65
2022-08-14T03:14:56.951Z,17.54
2022-08-14T03:17:00.073Z,17.44
2022-08-14T03:19:07.138Z,17.40
2022-08-14T03:21:13.309Z,17.42
2022-08-14T03:23:16.777Z,17.43
2022-08-14T03:25:21.768Z,17.46
2022-08-14T03:27:35.199Z,17.47
2022-08-14T03:29:50.142Z,17.49
2022-08-14T03:31:53.278Z,17.47
2022-08-14T03:33:56.937Z,17.43
2022-08-14T03:37:38.575Z,17.33
2022-08-14T03:39:11.904Z,17.24
2022-08-14T03:40:54.740Z,17.19
2022-08-14T03:42:58.961Z,17.16
2022-08-14T03:45:25.121Z,17.14
2022-08-14T03:47:34.237Z,17.15
2022-08-14T03:49:50.021Z,17.16
2022-08-14T03:51:54.821Z,17.15
2022-08-14T03:53:59.565Z,17.16
2022-08-14T03:56:02.598Z,17.17
2022-08-14T03:58:06.873Z,17.16
2022-08-14T04:00:27.616Z,17.17
2022-08-14T04:02:37.420Z,17.13
2022-08-14T04:04:50.377Z,17.12
2022-08-14T04:06:54.799Z,17.09
2022-08-14T04:09:01.812Z,17.07
2022-08-14T04:11:07.779Z,17.04
2022-08-14T04:13:16.476Z,17.02
2022-08-14T04:15:21.169Z,17.01
2022-08-14T04:17:29.413Z,16.99
2022-08-14T04:19:36.359Z,16.98
2022-08-14T04:22:03.435Z,17.00
2022-08-14T04:24:06.070Z,16.97
2022-08-14T04:26:14.413Z,16.97
2022-08-14T04:29:07.128Z,16.98
2022-08-14T04:30:42.289Z,16.99
2022-08-14T04:33:02.249Z,16.97
2022-08-14T04:35:10.546Z,16.98
2022-08-14T04:37:31.678Z,16.98
2022-08-14T04:39:56.596Z,16.97
2022-08-14T04:42:18.011Z,16.95
2022-08-14T04:44:36.116Z,16.95
2022-08-14T04:46:54.786Z,16.94
2022-08-14T04:49:00.359Z,16.90
2022-08-14T04:51:05.841Z,16.90
2022-08-14T04:53:11.023Z,16.91
2022-08-14T04:55:15.525Z,16.91
2022-08-14T04:57:19.259Z,16.92
2022-08-14T04:59:23.645Z,16.93
2022-08-14T05:01:27.650Z,16.98
2022-08-14T05:03:33.578Z,17.05
2022-08-14T05:05:36.794Z,17.13
2022-08-14T05:07:53.939Z,17.21
2022-08-14T05:09:57.949Z,17.33
2022-08-14T05:13:11.149Z,17.41
2022-08-14T05:14:45.946Z,17.50
2022-08-14T05:16:49.930Z,17.59
2022-08-14T05:19:17.907Z,17.68
2022-08-14T05:22:00.075Z,17.78
2022-08-14T05:23:41.787Z,17.89
2022-08-14T05:25:47.403Z,18.00
2022-08-14T05:27:53.821Z,18.20
2022-08-14T05:29:58.075Z,18.41
2022-08-14T05:32:06.335Z,18.65
2022-08-14T05:34:10.642Z,18.89
2022-08-14T05:36:16.764Z,19.14
2022-08-14T05:38:22.276Z,19.34
2022-08-14T05:40:35.243Z,19.58
2022-08-14T05:42:38.937Z,19.83
2022-08-14T05:44:46.090Z,20.08
2022-08-14T05:46:49.242Z,20.34
2022-08-14T05:48:54.259Z,20.58
2022-08-14T05:50:57.406Z,20.83
2022-08-14T05:53:01.957Z,21.08
2022-08-14T05:55:05.664Z,21.30
2022-08-14T05:57:08.717Z,21.46
2022-08-14T05:59:14.011Z,21.55
2022-08-14T06:01:21.483Z,21.72
2022-08-14T06:03:26.751Z,21.94
2022-08-14T06:05:30.391Z,22.11
2022-08-14T06:07:36.764Z,22.28
2022-08-14T06:09:40.633Z,22.42
2022-08-14T06:11:43.970Z,22.70
2022-08-14T06:13:52.970Z,22.93
2022-08-14T06:15:57.447Z,23.09
2022-08-14T06:18:02.650Z,23.22
2022-08-14T06:20:06.886Z,23.36
2022-08-14T06:22:13.461Z,23.57
2022-08-14T06:24:20.649Z,23.78
2022-08-14T06:26:30.258Z,23.99
2022-08-14T06:28:33.952Z,24.18
2022-08-14T06:30:45.975Z,24.35
2022-08-14T06:32:52.484Z,24.58
2022-08-14T06:35:04.692Z,24.72
2022-08-14T06:37:18.683Z,24.93
2022-08-14T06:39:36.517Z,25.08
2022-08-14T06:41:58.650Z,25.39
2022-08-14T06:44:02.826Z,25.66
2022-08-14T06:46:06.308Z,25.93
2022-08-14T06:48:23.711Z,26.21
2022-08-14T06:50:30.269Z,26.40
2022-08-14T06:52:33.586Z,26.52
2022-08-14T06:54:36.716Z,26.49
2022-08-14T06:56:40.286Z,26.64
2022-08-14T06:58:47.561Z,26.88
2022-08-14T07:01:08.151Z,27.04
2022-08-14T07:03:29.091Z,27.03
2022-08-14T07:05:55.529Z,27.14
2022-08-14T07:08:01.069Z,27.23
2022-08-14T07:10:05.050Z,27.22
2022-08-14T07:12:08.935Z,27.22
2022-08-14T07:14:31.946Z,27.30
2022-08-14T07:16:35.278Z,27.47
2022-08-14T07:18:40.768Z,27.65
2022-08-14T07:20:45.570Z,27.87
2022-08-14T07:22:56.424Z,27.94
2022-08-14T07:25:00.264Z,27.96
2022-08-14T07:27:03.384Z,27.97
2022-08-14T07:29:06.446Z,27.94
2022-08-14T07:31:11.513Z,28.02
2022-08-14T07:33:14.715Z,28.20
2022-08-14T07:35:18.104Z,28.30
2022-08-14T07:37:22.538Z,28.39
2022-08-14T07:39:27.523Z,28.49
2022-08-14T07:41:33.538Z,28.66
2022-08-14T07:43:37.770Z,28.80
2022-08-14T07:45:42.335Z,28.97
2022-08-14T07:47:45.529Z,29.14
2022-08-14T07:49:56.124Z,29.31
2022-08-14T07:51:59.966Z,29.53
2022-08-14T07:54:11.002Z,29.64
2022-08-14T07:56:44.114Z,29.79
2022-08-14T07:58:38.848Z,29.94
2022-08-14T08:00:56.550Z,30.07
2022-08-14T08:03:00.621Z,30.24
2022-08-14T08:05:04.001Z,30.38
2022-08-14T08:07:07.831Z,30.47
2022-08-14T08:09:13.235Z,30.58
2022-08-14T08:11:19.456Z,30.77
2022-08-14T08:13:24.432Z,30.92
2022-08-14T08:15:29.195Z,31.07
2022-08-14T08:17:34.805Z,31.14
2022-08-14T08:19:41.508Z,31.25
2022-08-14T08:21:47.631Z,31.40
2022-08-14T08:23:51.620Z,31.54
2022-08-14T08:25:58.516Z,31.68
2022-08-14T08:28:08.196Z,31.90
2022-08-14T08:30:13.050Z,32.10
2022-08-14T08:32:16.147Z,32.21
2022-08-14T08:34:19.782Z,32.26
2022-08-14T08:36:29.950Z,32.33
2022-08-14T08:39:17.840Z,32.48
2022-08-14T08:41:00.069Z,32.66
2022-08-14T08:43:04.132Z,32.69
2022-08-14T08:45:12.142Z,32.71
2022-08-14T08:47:15.417Z,32.84
2022-08-14T08:49:19.321Z,32.99
2022-08-14T08:51:33.599Z,33.15
2022-08-14T08:53:38.025Z,33.27
2022-08-14T08:55:46.507Z,33.31
2022-08-14T08:57:55.262Z,33.52
2022-08-14T08:59:58.741Z,33.64
2022-08-14T09:02:05.324Z,33.70
2022-08-14T09:04:14.724Z,33.65
2022-08-14T09:06:59.931Z,33.70
2022-08-14T09:08:46.265Z,33.47
2022-08-14T09:10:52.447Z,33.32
2022-08-14T09:13:01.005Z,33.30
2022-08-14T09:15:11.455Z,33.21
2022-08-14T09:17:15.551Z,33.22
2022-08-14T09:19:19.065Z,33.17
2022-08-14T09:21:31.424Z,33.31
2022-08-14T09:24:26.158Z,33.38
2022-08-14T09:26:00.042Z,33.42
2022-08-14T09:28:06.800Z,33.36
2022-08-14T09:30:30.662Z,33.41
2022-08-14T09:32:58.688Z,33.27
2022-08-14T09:35:08.481Z,33.19
2022-08-14T09:37:22.439Z,33.17
2022-08-14T09:39:38.335Z,33.13
2022-08-14T09:42:21.253Z,33.16
2022-08-14T09:44:31.063Z,33.14
2022-08-14T09:46:34.762Z,33.16
2022-08-14T09:48:38.725Z,33.16
2022-08-14T09:50:47.314Z,33.18
2022-08-14T09:52:54.943Z,33.14
2022-08-14T09:54:59.759Z,33.07
2022-08-14T09:57:06.582Z,33.06
2022-08-14T09:59:14.933Z,33.02
2022-08-14T10:01:21.346Z,33.06
2022-08-14T10:03:33.944Z,32.79
2022-08-14T10:05:39.523Z,32.96
2022-08-14T10:07:53.775Z,32.96
2022-08-14T10:10:02.549Z,33.03
2022-08-14T10:12:28.750Z,33.26
2022-08-14T10:14:37.111Z,33.17
2022-08-14T10:16:45.467Z,33.06
2022-08-14T10:18:51.025Z,33.10
2022-08-14T10:20:57.819Z,33.02
2022-08-14T10:23:21.874Z,32.89
2022-08-14T10:25:26.790Z,32.68
2022-08-14T10:27:30.060Z,32.63
2022-08-14T10:29:35.142Z,32.82
2022-08-14T10:31:45.179Z,32.75
2022-08-14T10:34:04.973Z,32.79
2022-08-14T10:36:35.251Z,32.90
2022-08-14T10:38:44.093Z,32.97
2022-08-14T10:40:59.425Z,32.79
2022-08-14T10:43:05.300Z,32.73
2022-08-14T10:45:21.195Z,32.68
2022-08-14T10:47:41.429Z,32.74
2022-08-14T10:50:01.558Z,32.73
2022-08-14T10:52:07.169Z,32.53
2022-08-14T10:54:25.971Z,32.53
2022-08-14T10:56:35.743Z,32.47
2022-08-14T10:58:38.863Z,32.51
2022-08-14T11:00:46.978Z,32.60
2022-08-14T11:02:59.074Z,32.57
2022-08-14T11:05:08.591Z,32.45
2022-08-14T11:07:21.228Z,32.50
2022-08-14T11:09:26.597Z,32.52
2022-08-14T11:11:43.846Z,32.50
2022-08-14T11:13:50.893Z,32.52
2022-08-14T11:15:56.155Z,32.54
2022-08-14T11:18:01.453Z,32.57
2022-08-14T11:20:13.695Z,32.64
2022-08-14T11:22:52.549Z,32.69
2022-08-14T11:24:54.803Z,32.68
2022-08-14T11:27:00.669Z,32.57
2022-08-14T11:29:05.749Z,32.47
2022-08-14T11:31:10.650Z,32.35
2022-08-14T11:33:14.048Z,32.43
2022-08-14T11:35:22.173Z,32.57
2022-08-14T11:37:35.209Z,32.63
2022-08-14T11:39:42.608Z,32.56
2022-08-14T11:41:56.046Z,32.58
2022-08-14T11:43:59.752Z,32.75
2022-08-14T11:46:03.712Z,32.94
2022-08-14T11:49:01.693Z,33.05
2022-08-14T11:50:43.389Z,32.85
2022-08-14T11:52:50.731Z,32.79
2022-08-14T11:55:00.498Z,32.71
2022-08-14T11:57:04.443Z,32.72
2022-08-14T11:59:10.282Z,32.66
2022-08-14T12:01:16.053Z,32.63
2022-08-14T12:03:37.642Z,32.63
2022-08-14T12:05:43.704Z,32.63
2022-08-14T12:07:50.305Z,32.61
2022-08-14T12:09:55.969Z,32.59
2022-08-14T12:11:59.804Z,32.61
2022-08-14T12:14:13.596Z,32.62
2022-08-14T12:16:33.234Z,32.64
2022-08-14T12:18:38.364Z,32.66
2022-08-14T12:20:45.872Z,32.71
2022-08-14T12:22:55.266Z,32.72
2022-08-14T12:24:58.727Z,32.70
2022-08-14T12:27:02.806Z,32.70
2022-08-14T12:29:08.606Z,32.70
2022-08-14T12:31:20.726Z,32.70
2022-08-14T12:33:30.607Z,32.73
2022-08-14T12:35:39.672Z,32.76
2022-08-14T12:37:50.755Z,32.75
2022-08-14T12:39:54.073Z,32.77
2022-08-14T12:42:06.651Z,32.75
2022-08-14T12:44:09.774Z,32.74
2022-08-14T12:46:27.198Z,32.85
2022-08-14T12:48:32.515Z,32.86
2022-08-14T12:50:37.466Z,32.81
2022-08-14T12:52:56.012Z,32.71
2022-08-14T12:55:08.940Z,32.65
2022-08-14T12:57:18.977Z,32.65
2022-08-14T12:59:30.937Z,32.58
2022-08-14T13:02:01.731Z,32.50
2022-08-14T13:04:07.221Z,32.51
2022-08-14T13:06:10.648Z,32.56
2022-08-14T13:08:33.565Z,32.56
2022-08-14T13:10:47.724Z,32.57
2022-08-14T13:13:13.239Z,32.67
2022-08-14T13:15:19.358Z,32.74
2022-08-14T13:17:24.271Z,32.70
2022-08-14T13:19:30.990Z,32.74
2022-08-14T13:22:05.907Z,32.83
2022-08-14T13:23:57.693Z,32.91
2022-08-14T13:26:02.889Z,32.84
2022-08-14T13:28:11.103Z,32.76
2022-08-14T13:30:23.400Z,32.79
2022-08-14T13:32:28.671Z,32.82
2022-08-14T13:34:31.906Z,32.79
2022-08-14T13:36:56.985Z,32.74
2022-08-14T13:39:00.395Z,32.74
2022-08-14T13:41:06.104Z,32.73
2022-08-14T13:43:09.883Z,32.75
2022-08-14T13:45:13.823Z,32.80
2022-08-14T13:47:20.750Z,32.84
2022-08-14T13:49:24.309Z,32.88
2022-08-14T13:51:33.284Z,32.90
2022-08-14T13:53:49.533Z,32.93
2022-08-14T13:56:14.666Z,32.97
2022-08-14T13:58:33.509Z,32.99
2022-08-14T14:00:53.082Z,32.92
2022-08-14T14:02:59.788Z,32.89
2022-08-14T14:05:05.207Z,32.81
2022-08-14T14:07:11.500Z,32.82
2022-08-14T14:09:16.400Z,32.81
2022-08-14T14:11:23.877Z,32.78
2022-08-14T14:13:27.883Z,32.72
2022-08-14T14:15:58.175Z,32.71
2022-08-14T14:18:01.467Z,32.65
2022-08-14T14:20:06.212Z,32.62
2022-08-14T14:22:09.790Z,32.59
2022-08-14T14:24:16.132Z,32.58
2022-08-14T14:26:24.064Z,32.57
2022-08-14T14:28:32.337Z,32.58
2022-08-14T14:30:52.588Z,32.56
2022-08-14T14:33:05.194Z,32.56
2022-08-14T14:35:12.359Z,32.52
2022-08-14T14:37:15.509Z,32.51
2022-08-14T14:39:21.262Z,32.49
2022-08-14T14:41:37.961Z,32.44
2022-08-14T14:43:51.589Z,32.48
2022-08-14T14:45:56.271Z,32.54
2022-08-14T14:48:01.951Z,32.60
2022-08-14T14:50:08.265Z,32.64
2022-08-14T14:52:23.482Z,32.65
2022-08-14T14:54:37.391Z,32.62
2022-08-14T14:56:49.304Z,32.61
2022-08-14T14:58:56.023Z,32.54
2022-08-14T15:01:00.534Z,32.56
2022-08-14T15:03:07.020Z,32.55
2022-08-14T15:05:11.258Z,32.49
2022-08-14T15:07:16.734Z,32.47
2022-08-14T15:09:20.310Z,32.44
2022-08-14T15:11:23.538Z,32.48
2022-08-14T15:13:28.239Z,32.49
2022-08-14T15:15:37.838Z,32.53
2022-08-14T15:17:43.242Z,32.54
2022-08-14T15:19:56.959Z,32.56
2022-08-14T15:22:00.330Z,32.52
2022-08-14T15:24:04.177Z,32.49
2022-08-14T15:26:07.764Z,32.49
2022-08-14T15:28:13.076Z,32.46
2022-08-14T15:30:32.028Z,32.45
2022-08-14T15:32:36.228Z,32.43
2022-08-14T15:34:43.851Z,32.39
2022-08-14T15:36:50.904Z,32.38
2022-08-14T15:38:54.282Z,32.38
2022-08-14T15:40:57.365Z,32.39
2022-08-14T15:43:00.812Z,32.39
2022-08-14T15:45:05.682Z,32.39
2022-08-14T15:47:10.256Z,32.35
2022-08-14T15:49:13.866Z,32.34
2022-08-14T15:51:17.254Z,32.34
2022-08-14T15:53:22.251Z,32.33
2022-08-14T15:55:25.495Z,32.31
2022-08-14T15:57:29.357Z,32.28
2022-08-14T15:59:54.035Z,32.24
2022-08-14T16:01:57.178Z,32.15
2022-08-14T16:04:01.778Z,32.08
2022-08-14T16:06:05.652Z,32.06
2022-08-14T16:08:29.409Z,32.03
2022-08-14T16:10:32.998Z,32.01
2022-08-14T16:12:41.819Z,31.99
2022-08-14T16:14:50.037Z,31.97
2022-08-14T16:17:00.464Z,31.96
2022-08-14T16:19:09.704Z,31.92
2022-08-14T16:21:15.495Z,31.90
2022-08-14T16:23:20.933Z,31.91
2022-08-14T16:25:34.359Z,31.93
2022-08-14T16:27:41.248Z,31.93
2022-08-14T16:29:45.092Z,31.91
2022-08-14T16:31:49.281Z,31.88
2022-08-14T16:33:59.705Z,31.86
2022-08-14T16:36:19.700Z,31.84
2022-08-14T16:38:45.758Z,31.79
2022-08-14T16:41:11.682Z,31.76
2022-08-14T16:43:16.611Z,31.74
2022-08-14T16:45:23.491Z,31.73
2022-08-14T16:47:31.986Z,31.72
2022-08-14T16:50:02.780Z,31.69
2022-08-14T16:52:04.442Z,31.69
2022-08-14T16:54:35.435Z,31.64
2022-08-14T16:56:47.781Z,31.63
2022-08-14T16:59:06.031Z,31.62
2022-08-14T17:01:24.343Z,31.63
2022-08-14T17:03:29.024Z,31.61
2022-08-14T17:05:47.085Z,31.56
2022-08-14T17:08:31.781Z,31.54
2022-08-14T17:11:00.121Z,31.53
2022-08-14T17:13:17.620Z,31.51
2022-08-14T17:15:21.024Z,31.47
2022-08-14T17:17:29.282Z,31.43
2022-08-14T17:19:41.146Z,31.42
2022-08-14T17:21:47.557Z,31.38
2022-08-14T17:23:53.547Z,31.35
2022-08-14T17:25:57.055Z,31.31
2022-08-14T17:28:49.926Z,31.30
2022-08-14T17:30:49.339Z,31.27
2022-08-14T17:32:56.075Z,31.22
2022-08-14T17:35:01.930Z,31.20
2022-08-14T17:37:06.131Z,31.17
2022-08-14T17:39:19.752Z,31.14
2022-08-14T17:41:32.969Z,31.08
2022-08-14T17:43:42.854Z,31.02
2022-08-14T17:45:46.813Z,30.96
2022-08-14T17:47:51.307Z,30.92
2022-08-14T17:49:56.624Z,30.87
2022-08-14T17:52:07.517Z,30.81
2022-08-14T17:54:34.580Z,30.73
2022-08-14T17:56:38.811Z,30.66
2022-08-14T17:58:42.633Z,30.58
2022-08-14T18:00:46.615Z,30.46
2022-08-14T18:02:53.935Z,30.35
2022-08-14T18:05:00.154Z,30.27
2022-08-14T18:07:16.906Z,30.20
2022-08-14T18:09:32.951Z,30.12
2022-08-14T18:11:45.799Z,30.05
2022-08-14T18:13:52.708Z,29.98
2022-08-14T18:15:57.887Z,29.90
2022-08-14T18:18:02.062Z,29.82
2022-08-14T18:21:24.050Z,29.72
2022-08-14T18:22:37.035Z,29.62
2022-08-14T18:24:44.126Z,29.53
2022-08-14T18:26:51.262Z,29.46
2022-08-14T18:29:14.762Z,29.37
2022-08-14T18:31:43.375Z,29.26
2022-08-14T18:33:55.307Z,29.16
2022-08-14T18:36:46.583Z,29.08
2022-08-14T18:38:26.503Z,28.97
2022-08-14T18:40:50.437Z,28.84
2022-08-14T18:42:57.196Z,28.76
2022-08-14T18:45:15.648Z,28.66
2022-08-14T18:47:22.148Z,28.55
2022-08-14T18:49:25.195Z,28.47
2022-08-14T18:51:45.277Z,28.40
2022-08-14T18:53:55.358Z,28.24
2022-08-14T18:56:09.768Z,28.14
2022-08-14T18:58:25.991Z,28.01
2022-08-14T19:00:54.679Z,27.87
2022-08-14T19:02:58.400Z,27.71
2022-08-14T19:05:02.557Z,27.62
2022-08-14T19:07:16.379Z,27.55
2022-08-14T19:09:57.824Z,27.50
2022-08-14T19:12:02.784Z,27.19
2022-08-14T19:14:08.807Z,26.96
2022-08-14T19:16:14.542Z,26.80
2022-08-14T19:18:26.502Z,26.64
2022-08-14T19:20:46.357Z,26.47
2022-08-14T19:22:55.183Z,26.37
2022-08-14T19:24:58.982Z,26.30
2022-08-14T19:27:24.796Z,26.21
2022-08-14T19:29:37.700Z,26.20
2022-08-14T19:31:55.087Z,26.20
2022-08-14T19:34:00.279Z,26.24
2022-08-14T19:36:31.484Z,26.24
2022-08-14T19:38:54.202Z,26.20
2022-08-14T19:40:57.295Z,26.10
2022-08-14T19:43:09.362Z,26.01
2022-08-14T19:45:15.579Z,25.96
2022-08-14T19:47:19.130Z,25.92
2022-08-14T19:50:24.724Z,25.89
2022-08-14T19:51:55.611Z,25.91
2022-08-14T19:54:06.536Z,25.91
2022-08-14T19:56:28.561Z,25.90
2022-08-14T19:58:54.413Z,25.86
2022-08-14T20:00:59.605Z,25.78
2022-08-14T20:03:11.912Z,25.67
2022-08-14T20:05:18.786Z,25.56
2022-08-14T20:08:00.463Z,25.49
2022-08-14T20:11:03.834Z,25.42
2022-08-14T20:12:28.974Z,25.36
2022-08-14T20:14:40.117Z,25.29
2022-08-14T20:17:03.226Z,25.22
2022-08-14T20:19:24.670Z,25.18
2022-08-14T20:21:34.359Z,25.15
2022-08-14T20:23:38.884Z,25.12
2022-08-14T20:25:55.827Z,25.16
2022-08-14T20:28:29.829Z,25.20
2022-08-14T20:30:36.414Z,25.26
2022-08-14T20:32:41.122Z,25.30
2022-08-14T20:34:51.479Z,25.33
2022-08-14T20:37:09.538Z,25.33
2022-08-14T20:39:15.429Z,25.37
2022-08-14T20:41:21.259Z,25.37
2022-08-14T20:43:44.994Z,25.34
2022-08-14T20:45:52.144Z,25.29
2022-08-14T20:47:58.307Z,25.28
2022-08-14T20:50:16.651Z,25.29
2022-08-14T20:52:21.129Z,25.30
2022-08-14T20:54:34.673Z,25.30
2022-08-14T20:56:41.663Z,25.27
2022-08-14T20:58:44.675Z,25.23
2022-08-14T21:01:00.521Z,25.17
2022-08-14T21:03:31.303Z,25.09
2022-08-14T21:05:34.635Z,25.01
2022-08-14T21:07:38.916Z,24.95
2022-08-14T21:10:06.637Z,24.91
2022-08-14T21:12:34.745Z,24.86
2022-08-14T21:14:34.180Z,24.82
2022-08-14T21:16:45.108Z,24.77
2022-08-14T21:19:02.455Z,24.77
2022-08-14T21:21:09.472Z,24.77
2022-08-14T21:23:14.140Z,24.76
2022-08-14T21:25:20.793Z,24.74
2022-08-14T21:27:24.044Z,24.72
2022-08-14T21:29:27.090Z,24.67
2022-08-14T21:31:30.962Z,24.59
2022-08-14T21:33:35.486Z,24.51
2022-08-14T21:35:46.409Z,24.45
2022-08-14T21:37:52.378Z,24.42
2022-08-14T21:39:58.523Z,24.40
2022-08-14T21:42:04.632Z,24.39
2022-08-14T21:44:17.427Z,24.44
2022-08-14T21:46:23.484Z,24.49
2022-08-14T21:48:29.732Z,24.50
2022-08-14T21:51:00.830Z,24.49
2022-08-14T21:53:01.041Z,24.46
2022-08-14T21:55:09.133Z,24.46
2022-08-14T21:57:17.327Z,24.45
2022-08-14T21:59:24.419Z,24.42
2022-08-14T22:02:00.831Z,24.32
2022-08-14T22:03:59.313Z,24.19
2022-08-14T22:06:04.156Z,24.13
2022-08-14T22:08:12.453Z,24.07
2022-08-14T22:10:23.076Z,24.07
2022-08-14T22:12:47.177Z,24.10
2022-08-14T22:14:50.823Z,24.12
2022-08-14T22:17:00.575Z,24.15
2022-08-14T22:19:18.153Z,24.19
2022-08-14T22:21:23.295Z,24.21
2022-08-14T22:23:27.895Z,24.20
2022-08-14T22:25:31.952Z,24.22
2022-08-14T22:27:37.885Z,24.24
2022-08-14T22:29:59.775Z,24.25
2022-08-14T22:32:07.018Z,24.22
2022-08-14T22:34:11.784Z,24.24
2022-08-14T22:36:42.251Z,24.23
2022-08-14T22:38:49.946Z,24.27
2022-08-14T22:41:08.931Z,24.32
2022-08-14T22:43:17.482Z,24.37
2022-08-14T22:45:20.736Z,24.38
2022-08-14T22:47:25.490Z,24.35
2022-08-14T22:50:29.071Z,24.34
2022-08-14T22:51:53.777Z,24.33
2022-08-14T22:53:59.027Z,24.32
2022-08-14T22:56:02.285Z,24.29
2022-08-14T22:58:07.706Z,24.30
2022-08-14T23:00:14.373Z,24.34
2022-08-14T23:02:22.208Z,24.42
2022-08-14T23:04:53.767Z,24.49
2022-08-14T23:07:04.503Z,24.54
2022-08-14T23:09:35.893Z,24.48
2022-08-14T23:11:33.614Z,24.44
2022-08-14T23:13:39.007Z,24.44
2022-08-14T23:15:42.631Z,24.45
2022-08-14T23:17:46.337Z,24.47
2022-08-14T23:19:56.153Z,24.50
2022-08-14T23:22:00.781Z,24.55
2022-08-14T23:24:04.954Z,24.54
2022-08-14T23:26:48.050Z,24.55
2022-08-14T23:28:57.268Z,24.55
2022-08-14T23:30:56.136Z,24.60
2022-08-14T23:32:59.856Z,24.61
2022-08-14T23:35:05.718Z,24.58
2022-08-14T23:37:08.840Z,24.54
2022-08-14T23:39:19.149Z,24.49
2022-08-14T23:41:23.782Z,24.48
2022-08-14T23:43:31.122Z,24.49
2022-08-14T23:45:37.214Z,24.49
2022-08-14T23:47:52.140Z,24.52
2022-08-14T23:50:01.430Z,24.55
2022-08-14T23:52:55.633Z,24.57
2022-08-14T23:54:48.715Z,24.57
2022-08-14T23:57:02.542Z,24.56
2022-08-14T23:59:06.748Z,24.55
